sensor_id;sensor_type;location;lat;lon;timestamp;P1;durP1;ratioP1;P2;durP2;ratioP2
51724;SDS011;37801;53.224;6.552;2024-03-22T00:00:05;28.50;;;20.53;;
51724;SDS011;37801;53.224;6.552;2024-03-22T00:03:04;26.70;;;19.52;;
51724;SDS011;37801;53.224;6.552;2024-03-22T00:05:41;26.65;;;19.73;;
51724;SDS011;37801;53.224;6.552;2024-03-22T00:08:18;29.15;;;19.52;;
51724;SDS011;37801;53.224;6.552;2024-03-22T05:21:29;47.63;;;28.42;;
51724;SDS011;37801;53.224;6.552;2024-03-22T06:09:46;36.83;;;21.45;;
51724;SDS011;37801;53.224;6.552;2024-03-22T06:16:00;35.90;;;21.58;;
51724;SDS011;37801;53.224;6.552;2024-03-22T06:18:37;35.45;;;20.73;;
51724;SDS011;37801;53.224;6.552;2024-03-22T06:21:09;36.90;;;20.67;;
51724;SDS011;37801;53.224;6.552;2024-03-22T08:17:01;41.30;;;24.05;;
51724;SDS011;37801;53.224;6.552;2024-03-22T08:19:40;35.50;;;19.45;;
51724;SDS011;37801;53.224;6.552;2024-03-22T08:22:16;25.77;;;14.65;;
51724;SDS011;37801;53.224;6.552;2024-03-22T08:45:56;12.85;;;8.57;;
51724;SDS011;37801;53.224;6.552;2024-03-22T08:48:40;13.38;;;8.68;;
51724;SDS011;37801;53.224;6.552;2024-03-22T08:51:06;12.02;;;8.68;;
51724;SDS011;37801;53.224;6.552;2024-03-22T08:53:54;14.02;;;8.48;;
51724;SDS011;37801;53.224;6.552;2024-03-22T08:56:20;12.82;;;8.15;;
51724;SDS011;37801;53.224;6.552;2024-03-22T08:58:47;11.10;;;7.00;;
51724;SDS011;37801;53.224;6.552;2024-03-22T09:01:13;11.40;;;7.90;;
51724;SDS011;37801;53.224;6.552;2024-03-22T09:03:39;11.40;;;7.75;;
51724;SDS011;37801;53.224;6.552;2024-03-22T09:06:05;10.63;;;7.45;;
51724;SDS011;37801;53.224;6.552;2024-03-22T09:08:37;10.57;;;7.18;;
51724;SDS011;37801;53.224;6.552;2024-03-22T09:11:05;10.45;;;7.57;;
51724;SDS011;37801;53.224;6.552;2024-03-22T09:13:38;10.07;;;6.97;;
51724;SDS011;37801;53.224;6.552;2024-03-22T09:16:07;11.27;;;7.75;;
51724;SDS011;37801;53.224;6.552;2024-03-22T09:18:52;9.65;;;6.68;;
51724;SDS011;37801;53.224;6.552;2024-03-22T09:22:02;10.82;;;7.30;;
51724;SDS011;37801;53.224;6.552;2024-03-22T09:24:28;9.57;;;6.95;;
51724;SDS011;37801;53.224;6.552;2024-03-22T09:26:54;10.13;;;6.50;;
51724;SDS011;37801;53.224;6.552;2024-03-22T09:29:20;10.25;;;6.93;;
51724;SDS011;37801;53.224;6.552;2024-03-22T09:31:54;10.70;;;7.38;;
51724;SDS011;37801;53.224;6.552;2024-03-22T09:35:03;10.85;;;7.55;;
51724;SDS011;37801;53.224;6.552;2024-03-22T09:37:29;11.05;;;7.20;;
51724;SDS011;37801;53.224;6.552;2024-03-22T09:39:55;12.18;;;6.70;;
51724;SDS011;37801;53.224;6.552;2024-03-22T09:42:22;9.90;;;6.35;;
51724;SDS011;37801;53.224;6.552;2024-03-22T09:44:50;8.70;;;6.75;;
51724;SDS011;37801;53.224;6.552;2024-03-22T09:47:17;11.15;;;7.07;;
51724;SDS011;37801;53.224;6.552;2024-03-22T09:49:43;10.23;;;7.03;;
51724;SDS011;37801;53.224;6.552;2024-03-22T09:52:14;10.73;;;6.53;;
51724;SDS011;37801;53.224;6.552;2024-03-22T09:54:45;11.57;;;6.82;;
51724;SDS011;37801;53.224;6.552;2024-03-22T09:57:13;9.90;;;6.60;;
51724;SDS011;37801;53.224;6.552;2024-03-22T09:59:45;8.15;;;6.10;;
51724;SDS011;37801;53.224;6.552;2024-03-22T10:02:35;9.90;;;6.18;;
51724;SDS011;37801;53.224;6.552;2024-03-22T10:05:08;10.13;;;6.70;;
51724;SDS011;37801;53.224;6.552;2024-03-22T10:07:34;7.57;;;5.72;;
51724;SDS011;37801;53.224;6.552;2024-03-22T10:10:09;9.50;;;6.07;;
51724;SDS011;37801;53.224;6.552;2024-03-22T10:12:42;8.52;;;5.88;;
51724;SDS011;37801;53.224;6.552;2024-03-22T10:15:09;7.40;;;5.57;;
51724;SDS011;37801;53.224;6.552;2024-03-22T10:17:38;7.53;;;4.82;;
51724;SDS011;37801;53.224;6.552;2024-03-22T10:20:04;7.93;;;4.97;;
51724;SDS011;37801;53.224;6.552;2024-03-22T10:22:47;10.73;;;5.22;;
51724;SDS011;37801;53.224;6.552;2024-03-22T10:25:14;6.45;;;4.63;;
51724;SDS011;37801;53.224;6.552;2024-03-22T10:27:40;6.80;;;4.75;;
51724;SDS011;37801;53.224;6.552;2024-03-22T10:30:10;6.65;;;4.50;;
51724;SDS011;37801;53.224;6.552;2024-03-22T10:32:39;5.43;;;4.20;;
51724;SDS011;37801;53.224;6.552;2024-03-22T10:35:08;6.63;;;4.25;;
51724;SDS011;37801;53.224;6.552;2024-03-22T10:37:41;8.73;;;4.40;;
51724;SDS011;37801;53.224;6.552;2024-03-22T10:41:08;5.40;;;3.85;;
51724;SDS011;37801;53.224;6.552;2024-03-22T10:46:54;7.47;;;3.78;;
51724;SDS011;37801;53.224;6.552;2024-03-22T10:49:24;6.63;;;3.70;;
51724;SDS011;37801;53.224;6.552;2024-03-22T10:51:58;4.68;;;3.13;;
51724;SDS011;37801;53.224;6.552;2024-03-22T10:54:27;5.22;;;3.28;;
51724;SDS011;37801;53.224;6.552;2024-03-22T10:56:56;4.75;;;3.20;;
51724;SDS011;37801;53.224;6.552;2024-03-22T10:59:26;5.68;;;3.20;;
51724;SDS011;37801;53.224;6.552;2024-03-22T11:02:12;4.40;;;3.25;;
51724;SDS011;37801;53.224;6.552;2024-03-22T11:05:00;5.95;;;3.25;;
51724;SDS011;37801;53.224;6.552;2024-03-22T11:07:43;5.25;;;2.92;;
51724;SDS011;37801;53.224;6.552;2024-03-22T11:10:12;3.55;;;2.22;;
51724;SDS011;37801;53.224;6.552;2024-03-22T11:12:39;4.70;;;2.70;;
51724;SDS011;37801;53.224;6.552;2024-03-22T11:15:37;5.25;;;2.67;;
51724;SDS011;37801;53.224;6.552;2024-03-22T11:18:09;6.78;;;2.90;;
51724;SDS011;37801;53.224;6.552;2024-03-22T11:20:38;4.43;;;2.75;;
51724;SDS011;37801;53.224;6.552;2024-03-22T11:23:10;7.32;;;2.72;;
51724;SDS011;37801;53.224;6.552;2024-03-22T11:25:43;6.32;;;2.83;;
51724;SDS011;37801;53.224;6.552;2024-03-22T11:28:09;7.25;;;2.80;;
51724;SDS011;37801;53.224;6.552;2024-03-22T11:30:36;4.10;;;2.65;;
51724;SDS011;37801;53.224;6.552;2024-03-22T11:33:02;5.65;;;2.60;;
51724;SDS011;37801;53.224;6.552;2024-03-22T11:35:38;6.10;;;2.78;;
51724;SDS011;37801;53.224;6.552;2024-03-22T11:38:15;5.00;;;2.75;;
51724;SDS011;37801;53.224;6.552;2024-03-22T11:40:42;6.32;;;3.65;;
51724;SDS011;37801;53.224;6.552;2024-03-22T11:43:08;6.13;;;3.35;;
51724;SDS011;37801;53.224;6.552;2024-03-22T11:45:38;4.40;;;2.75;;
51724;SDS011;37801;53.224;6.552;2024-03-22T11:48:06;5.63;;;2.55;;
51724;SDS011;37801;53.224;6.552;2024-03-22T11:53:36;3.92;;;2.50;;
51724;SDS011;37801;53.224;6.552;2024-03-22T11:59:40;4.13;;;2.00;;
51724;SDS011;37801;53.224;6.552;2024-03-22T12:02:09;3.83;;;2.33;;
51724;SDS011;37801;53.224;6.552;2024-03-22T12:08:03;7.25;;;2.80;;
51724;SDS011;37801;53.224;6.552;2024-03-22T12:10:29;13.15;;;3.35;;
51724;SDS011;37801;53.224;6.552;2024-03-22T12:13:18;9.35;;;3.63;;
51724;SDS011;37801;53.224;6.552;2024-03-22T12:15:47;8.40;;;3.10;;
51724;SDS011;37801;53.224;6.552;2024-03-22T12:18:14;7.00;;;3.00;;
51724;SDS011;37801;53.224;6.552;2024-03-22T12:20:42;9.88;;;3.15;;
51724;SDS011;37801;53.224;6.552;2024-03-22T12:23:46;9.52;;;2.88;;
51724;SDS011;37801;53.224;6.552;2024-03-22T12:26:12;10.38;;;3.40;;
51724;SDS011;37801;53.224;6.552;2024-03-22T12:28:39;11.77;;;3.95;;
51724;SDS011;37801;53.224;6.552;2024-03-22T12:31:11;13.65;;;4.57;;
51724;SDS011;37801;53.224;6.552;2024-03-22T12:33:37;8.75;;;3.65;;
51724;SDS011;37801;53.224;6.552;2024-03-22T12:36:09;10.25;;;3.63;;
51724;SDS011;37801;53.224;6.552;2024-03-22T12:54:11;10.75;;;4.75;;
51724;SDS011;37801;53.224;6.552;2024-03-22T12:56:39;9.38;;;4.78;;
51724;SDS011;37801;53.224;6.552;2024-03-22T12:59:21;10.88;;;5.28;;
51724;SDS011;37801;53.224;6.552;2024-03-22T13:01:50;8.35;;;4.97;;
51724;SDS011;37801;53.224;6.552;2024-03-22T13:08:10;15.77;;;4.93;;
51724;SDS011;37801;53.224;6.552;2024-03-22T13:10:47;12.02;;;4.93;;
51724;SDS011;37801;53.224;6.552;2024-03-22T13:13:22;16.10;;;5.47;;
51724;SDS011;37801;53.224;6.552;2024-03-22T13:15:48;14.40;;;4.75;;
51724;SDS011;37801;53.224;6.552;2024-03-22T13:20:51;13.30;;;4.78;;
51724;SDS011;37801;53.224;6.552;2024-03-22T13:26:18;11.43;;;4.90;;
51724;SDS011;37801;53.224;6.552;2024-03-22T13:28:48;13.77;;;4.90;;
51724;SDS011;37801;53.224;6.552;2024-03-22T13:45:00;22.63;;;5.97;;
51724;SDS011;37801;53.224;6.552;2024-03-22T13:47:28;19.77;;;5.40;;
51724;SDS011;37801;53.224;6.552;2024-03-22T13:50:09;16.55;;;5.68;;
51724;SDS011;37801;53.224;6.552;2024-03-22T13:52:43;12.10;;;4.88;;
51724;SDS011;37801;53.224;6.552;2024-03-22T13:58:27;16.63;;;4.15;;
51724;SDS011;37801;53.224;6.552;2024-03-22T14:00:57;19.63;;;4.88;;
51724;SDS011;37801;53.224;6.552;2024-03-22T14:06:00;16.35;;;4.65;;
51724;SDS011;37801;53.224;6.552;2024-03-22T14:08:40;15.25;;;5.13;;
51724;SDS011;37801;53.224;6.552;2024-03-22T14:11:09;12.00;;;4.47;;
51724;SDS011;37801;53.224;6.552;2024-03-22T14:13:35;16.65;;;4.15;;
51724;SDS011;37801;53.224;6.552;2024-03-22T14:16:01;21.38;;;5.25;;
51724;SDS011;37801;53.224;6.552;2024-03-22T14:18:28;19.48;;;4.90;;
51724;SDS011;37801;53.224;6.552;2024-03-22T14:20:54;16.42;;;4.90;;
51724;SDS011;37801;53.224;6.552;2024-03-22T14:23:20;23.48;;;5.47;;
51724;SDS011;37801;53.224;6.552;2024-03-22T14:25:46;17.35;;;4.57;;
51724;SDS011;37801;53.224;6.552;2024-03-22T14:28:16;17.92;;;4.85;;
51724;SDS011;37801;53.224;6.552;2024-03-22T14:30:45;18.23;;;4.82;;
51724;SDS011;37801;53.224;6.552;2024-03-22T14:33:12;20.65;;;4.68;;
51724;SDS011;37801;53.224;6.552;2024-03-22T14:35:44;14.85;;;4.80;;
51724;SDS011;37801;53.224;6.552;2024-03-22T14:38:10;19.42;;;5.45;;
51724;SDS011;37801;53.224;6.552;2024-03-22T14:40:36;21.23;;;4.43;;
51724;SDS011;37801;53.224;6.552;2024-03-22T14:43:12;19.38;;;5.20;;
51724;SDS011;37801;53.224;6.552;2024-03-22T14:45:40;19.38;;;4.30;;
51724;SDS011;37801;53.224;6.552;2024-03-22T14:48:07;29.88;;;5.50;;
51724;SDS011;37801;53.224;6.552;2024-03-22T14:50:36;22.08;;;4.82;;
51724;SDS011;37801;53.224;6.552;2024-03-22T14:53:03;15.90;;;3.55;;
51724;SDS011;37801;53.224;6.552;2024-03-22T14:55:30;20.38;;;4.85;;
51724;SDS011;37801;53.224;6.552;2024-03-22T14:57:56;28.38;;;5.05;;
51724;SDS011;37801;53.224;6.552;2024-03-22T15:00:22;23.73;;;4.63;;
51724;SDS011;37801;53.224;6.552;2024-03-22T15:02:51;21.67;;;4.00;;
51724;SDS011;37801;53.224;6.552;2024-03-22T15:05:17;23.90;;;4.53;;
51724;SDS011;37801;53.224;6.552;2024-03-22T15:07:44;23.73;;;4.93;;
51724;SDS011;37801;53.224;6.552;2024-03-22T15:10:10;27.13;;;4.78;;
51724;SDS011;37801;53.224;6.552;2024-03-22T15:12:36;20.48;;;4.88;;
51724;SDS011;37801;53.224;6.552;2024-03-22T15:15:02;21.42;;;4.28;;
51724;SDS011;37801;53.224;6.552;2024-03-22T15:17:51;19.58;;;5.13;;
51724;SDS011;37801;53.224;6.552;2024-03-22T15:20:18;18.63;;;3.85;;
51724;SDS011;37801;53.224;6.552;2024-03-22T15:22:44;25.15;;;4.40;;
51724;SDS011;37801;53.224;6.552;2024-03-22T15:25:10;28.42;;;4.55;;
51724;SDS011;37801;53.224;6.552;2024-03-22T15:27:36;18.40;;;3.53;;
51724;SDS011;37801;53.224;6.552;2024-03-22T15:30:05;21.02;;;4.00;;
51724;SDS011;37801;53.224;6.552;2024-03-22T15:32:48;18.50;;;3.78;;
51724;SDS011;37801;53.224;6.552;2024-03-22T15:35:43;23.05;;;4.47;;
51724;SDS011;37801;53.224;6.552;2024-03-22T15:38:15;13.32;;;2.92;;
51724;SDS011;37801;53.224;6.552;2024-03-22T15:40:41;24.20;;;4.63;;
51724;SDS011;37801;53.224;6.552;2024-03-22T15:43:12;16.42;;;3.50;;
51724;SDS011;37801;53.224;6.552;2024-03-22T15:46:06;20.02;;;3.90;;
51724;SDS011;37801;53.224;6.552;2024-03-22T15:48:32;22.40;;;3.88;;
51724;SDS011;37801;53.224;6.552;2024-03-22T15:56:04;21.33;;;4.05;;
51724;SDS011;37801;53.224;6.552;2024-03-22T15:58:52;21.70;;;3.67;;
51724;SDS011;37801;53.224;6.552;2024-03-22T16:01:36;14.70;;;3.95;;
51724;SDS011;37801;53.224;6.552;2024-03-22T16:04:26;24.40;;;3.80;;
51724;SDS011;37801;53.224;6.552;2024-03-22T16:06:52;26.77;;;5.50;;
51724;SDS011;37801;53.224;6.552;2024-03-22T16:09:19;22.27;;;4.38;;
51724;SDS011;37801;53.224;6.552;2024-03-22T16:24:45;24.10;;;5.07;;
51724;SDS011;37801;53.224;6.552;2024-03-22T16:27:11;26.05;;;5.50;;
51724;SDS011;37801;53.224;6.552;2024-03-22T16:29:37;28.23;;;5.13;;
51724;SDS011;37801;53.224;6.552;2024-03-22T16:32:03;19.30;;;4.50;;
51724;SDS011;37801;53.224;6.552;2024-03-22T16:34:31;29.00;;;4.93;;
51724;SDS011;37801;53.224;6.552;2024-03-22T16:36:57;24.88;;;4.60;;
51724;SDS011;37801;53.224;6.552;2024-03-22T16:39:26;17.50;;;3.67;;
51724;SDS011;37801;53.224;6.552;2024-03-22T16:41:58;29.35;;;5.72;;
51724;SDS011;37801;53.224;6.552;2024-03-22T16:44:42;33.13;;;5.60;;
51724;SDS011;37801;53.224;6.552;2024-03-22T16:47:12;27.33;;;5.93;;
51724;SDS011;37801;53.224;6.552;2024-03-22T16:49:38;22.75;;;3.90;;
51724;SDS011;37801;53.224;6.552;2024-03-22T16:52:05;21.35;;;4.30;;
51724;SDS011;37801;53.224;6.552;2024-03-22T16:54:31;16.02;;;3.40;;
51724;SDS011;37801;53.224;6.552;2024-03-22T16:56:57;19.40;;;3.88;;
51724;SDS011;37801;53.224;6.552;2024-03-22T16:59:23;22.95;;;4.20;;
51724;SDS011;37801;53.224;6.552;2024-03-22T17:01:49;23.77;;;4.60;;
51724;SDS011;37801;53.224;6.552;2024-03-22T17:04:16;22.90;;;4.18;;
51724;SDS011;37801;53.224;6.552;2024-03-22T17:06:42;17.17;;;3.47;;
51724;SDS011;37801;53.224;6.552;2024-03-22T17:09:08;18.25;;;4.20;;
51724;SDS011;37801;53.224;6.552;2024-03-22T17:11:35;22.58;;;4.43;;
51724;SDS011;37801;53.224;6.552;2024-03-22T17:14:02;20.73;;;4.05;;
51724;SDS011;37801;53.224;6.552;2024-03-22T17:16:28;23.35;;;3.92;;
51724;SDS011;37801;53.224;6.552;2024-03-22T17:18:54;25.17;;;4.22;;
51724;SDS011;37801;53.224;6.552;2024-03-22T17:21:20;17.08;;;4.10;;
51724;SDS011;37801;53.224;6.552;2024-03-22T17:23:52;18.15;;;3.50;;
51724;SDS011;37801;53.224;6.552;2024-03-22T17:26:18;17.95;;;3.55;;
51724;SDS011;37801;53.224;6.552;2024-03-22T17:28:44;20.10;;;3.88;;
51724;SDS011;37801;53.224;6.552;2024-03-22T17:31:11;20.23;;;3.90;;
51724;SDS011;37801;53.224;6.552;2024-03-22T17:33:38;20.23;;;3.85;;
51724;SDS011;37801;53.224;6.552;2024-03-22T17:36:04;18.75;;;3.72;;
51724;SDS011;37801;53.224;6.552;2024-03-22T17:38:30;20.25;;;3.53;;
51724;SDS011;37801;53.224;6.552;2024-03-22T17:40:56;16.35;;;3.08;;
51724;SDS011;37801;53.224;6.552;2024-03-22T17:43:24;17.33;;;3.65;;
51724;SDS011;37801;53.224;6.552;2024-03-22T17:45:59;21.05;;;4.03;;
51724;SDS011;37801;53.224;6.552;2024-03-22T17:48:25;19.38;;;3.30;;
51724;SDS011;37801;53.224;6.552;2024-03-22T17:50:51;24.85;;;3.60;;
51724;SDS011;37801;53.224;6.552;2024-03-22T17:53:18;15.55;;;3.80;;
51724;SDS011;37801;53.224;6.552;2024-03-22T17:55:44;18.75;;;3.22;;
51724;SDS011;37801;53.224;6.552;2024-03-22T17:58:10;22.10;;;3.97;;
51724;SDS011;37801;53.224;6.552;2024-03-22T18:00:37;22.20;;;3.83;;
51724;SDS011;37801;53.224;6.552;2024-03-22T18:03:03;16.35;;;3.30;;
51724;SDS011;37801;53.224;6.552;2024-03-22T18:05:30;12.35;;;2.33;;
51724;SDS011;37801;53.224;6.552;2024-03-22T18:07:56;22.63;;;3.85;;
51724;SDS011;37801;53.224;6.552;2024-03-22T18:10:24;19.02;;;4.15;;
51724;SDS011;37801;53.224;6.552;2024-03-22T18:12:50;12.40;;;2.97;;
51724;SDS011;37801;53.224;6.552;2024-03-22T18:15:16;15.38;;;3.55;;
51724;SDS011;37801;53.224;6.552;2024-03-22T18:17:42;16.17;;;3.58;;
51724;SDS011;37801;53.224;6.552;2024-03-22T18:20:08;17.13;;;2.90;;
51724;SDS011;37801;53.224;6.552;2024-03-22T18:22:34;13.75;;;2.78;;
51724;SDS011;37801;53.224;6.552;2024-03-22T18:25:00;15.88;;;3.55;;
51724;SDS011;37801;53.224;6.552;2024-03-22T18:27:27;14.65;;;2.90;;
51724;SDS011;37801;53.224;6.552;2024-03-22T18:29:53;13.27;;;3.45;;
51724;SDS011;37801;53.224;6.552;2024-03-22T18:32:19;17.08;;;3.28;;
51724;SDS011;37801;53.224;6.552;2024-03-22T18:34:45;23.52;;;3.95;;
51724;SDS011;37801;53.224;6.552;2024-03-22T18:37:11;14.75;;;3.72;;
51724;SDS011;37801;53.224;6.552;2024-03-22T18:39:38;18.60;;;3.92;;
51724;SDS011;37801;53.224;6.552;2024-03-22T18:42:04;17.15;;;3.60;;
51724;SDS011;37801;53.224;6.552;2024-03-22T18:44:31;18.02;;;4.07;;
51724;SDS011;37801;53.224;6.552;2024-03-22T18:46:58;22.45;;;4.38;;
51724;SDS011;37801;53.224;6.552;2024-03-22T18:49:24;14.07;;;4.07;;
51724;SDS011;37801;53.224;6.552;2024-03-22T18:51:50;19.73;;;3.90;;
51724;SDS011;37801;53.224;6.552;2024-03-22T18:54:16;20.60;;;4.70;;
51724;SDS011;37801;53.224;6.552;2024-03-22T18:56:42;21.55;;;4.10;;
51724;SDS011;37801;53.224;6.552;2024-03-22T18:59:08;20.20;;;4.10;;
51724;SDS011;37801;53.224;6.552;2024-03-22T19:01:34;19.05;;;4.57;;
51724;SDS011;37801;53.224;6.552;2024-03-22T19:04:00;18.23;;;4.20;;
51724;SDS011;37801;53.224;6.552;2024-03-22T19:06:27;21.20;;;4.35;;
51724;SDS011;37801;53.224;6.552;2024-03-22T19:08:53;26.30;;;4.13;;
51724;SDS011;37801;53.224;6.552;2024-03-22T19:11:19;21.30;;;4.40;;
51724;SDS011;37801;53.224;6.552;2024-03-22T19:13:45;20.10;;;4.70;;
51724;SDS011;37801;53.224;6.552;2024-03-22T19:16:11;24.58;;;4.30;;
51724;SDS011;37801;53.224;6.552;2024-03-22T19:18:38;16.35;;;3.55;;
51724;SDS011;37801;53.224;6.552;2024-03-22T19:21:05;23.15;;;4.07;;
51724;SDS011;37801;53.224;6.552;2024-03-22T19:23:32;19.33;;;4.43;;
51724;SDS011;37801;53.224;6.552;2024-03-22T19:25:58;20.55;;;4.13;;
51724;SDS011;37801;53.224;6.552;2024-03-22T19:28:25;19.98;;;3.70;;
51724;SDS011;37801;53.224;6.552;2024-03-22T19:30:51;19.25;;;4.35;;
51724;SDS011;37801;53.224;6.552;2024-03-22T19:33:18;18.58;;;3.72;;
51724;SDS011;37801;53.224;6.552;2024-03-22T19:35:45;21.33;;;4.32;;
51724;SDS011;37801;53.224;6.552;2024-03-22T19:38:11;21.42;;;5.10;;
51724;SDS011;37801;53.224;6.552;2024-03-22T19:40:37;18.55;;;4.03;;
51724;SDS011;37801;53.224;6.552;2024-03-22T19:43:04;23.83;;;4.68;;
51724;SDS011;37801;53.224;6.552;2024-03-22T19:45:30;16.20;;;4.43;;
51724;SDS011;37801;53.224;6.552;2024-03-22T19:47:56;25.73;;;4.47;;
51724;SDS011;37801;53.224;6.552;2024-03-22T19:50:22;19.73;;;4.18;;
51724;SDS011;37801;53.224;6.552;2024-03-22T19:52:49;19.20;;;4.10;;
51724;SDS011;37801;53.224;6.552;2024-03-22T19:55:15;19.75;;;4.10;;
51724;SDS011;37801;53.224;6.552;2024-03-22T19:57:41;18.20;;;4.30;;
51724;SDS011;37801;53.224;6.552;2024-03-22T20:00:07;21.20;;;4.43;;
51724;SDS011;37801;53.224;6.552;2024-03-22T20:02:33;21.52;;;4.47;;
51724;SDS011;37801;53.224;6.552;2024-03-22T20:04:59;19.60;;;6.10;;
51724;SDS011;37801;53.224;6.552;2024-03-22T20:07:26;20.52;;;4.70;;
51724;SDS011;37801;53.224;6.552;2024-03-22T20:09:52;17.77;;;4.40;;
51724;SDS011;37801;53.224;6.552;2024-03-22T20:12:18;16.08;;;4.35;;
51724;SDS011;37801;53.224;6.552;2024-03-22T20:14:44;23.67;;;5.63;;
51724;SDS011;37801;53.224;6.552;2024-03-22T20:17:10;17.48;;;4.55;;
51724;SDS011;37801;53.224;6.552;2024-03-22T20:19:36;20.15;;;4.50;;
51724;SDS011;37801;53.224;6.552;2024-03-22T20:22:02;20.92;;;4.53;;
51724;SDS011;37801;53.224;6.552;2024-03-22T20:24:29;17.38;;;4.25;;
51724;SDS011;37801;53.224;6.552;2024-03-22T20:26:55;20.00;;;4.20;;
51724;SDS011;37801;53.224;6.552;2024-03-22T20:29:21;17.00;;;4.07;;
51724;SDS011;37801;53.224;6.552;2024-03-22T20:31:47;21.17;;;4.43;;
51724;SDS011;37801;53.224;6.552;2024-03-22T20:34:14;18.95;;;4.95;;
51724;SDS011;37801;53.224;6.552;2024-03-22T20:36:40;20.73;;;5.15;;
